This is the latest recevied weather packets stored in our database for station/object N4OOJ-13. If no packets are shown the sender has not sent any weather packets the latest 10 day(s).
| Time | Temp. | Humidity | Pressure | Rain* | Wind** | Luminosity | Snow |
|---|---|---|---|---|---|---|---|
| 1787794232 | 23.89° C | 99% | 1017.8 hPa | 0 mm | - | - | - |
| 1787793626 | 23.89° C | 99% | 1017.5 hPa | 0 mm | - | - | - |
| 1787793016 | 23.89° C | 99% | 1017.5 hPa | 0 mm | - | - | - |
| 1787792427 | 23.89° C | 99% | 1017.5 hPa | 0 mm | - | - | - |
| 1787791826 | 24.44° C | 99% | 1017.6 hPa | 0 mm | - | - | - |
| 1787791227 | 24.44° C | 99% | 1017.5 hPa | 0 mm | - | - | - |
| 1787790623 | 24.44° C | 99% | 1017.3 hPa | 0 mm | - | - | - |
| 1787790016 | 24.44° C | 99% | 1016.9 hPa | 0 mm | - | - | - |
| 1787789416 | 24.44° C | 99% | 1016.7 hPa | 0 mm | - | - | - |
| 1787788824 | 25° C | 99% | 1016.6 hPa | 0 mm | - | - | - |
| 1787788219 | 25.56° C | 97% | 1016.7 hPa | 0 mm | - | - | - |
| 1787787619 | 25.56° C | 98% | 1017.2 hPa | 0 mm | - | - | - |
| 1787787032 | 26.11° C | 96% | 1017.4 hPa | 0 mm | - | - | - |
| 1787786427 | 26.11° C | 95% | 1017.4 hPa | 0 mm | - | - | - |
| 1787785822 | 26.67° C | 95% | 1017.5 hPa | 0 mm | - | - | - |
| 1787785223 | 26.67° C | 98% | 1017.6 hPa | 0 mm | - | - | - |
| 1787784622 | 27.22° C | 95% | 1017.5 hPa | 0 mm | - | - | - |
| 1787784017 | 27.78° C | 93% | 1017.7 hPa | 0 mm | - | - | - |
| 1787783417 | 27.78° C | 92% | 1017.4 hPa | 0 mm | - | - | - |
| 1787782818 | 27.78° C | 91% | 1017.6 hPa | 0 mm | - | - | - |
| 1787782224 | 28.33° C | 90% | 1017.7 hPa | 0 mm | - | - | - |
| 1787781619 | 28.33° C | 89% | 1017.8 hPa | 0 mm | - | - | - |
| 1787781020 | 28.33° C | 88% | 1017.7 hPa | 0 mm | - | - | - |
| 1787780433 | 27.78° C | 90% | 1017.7 hPa | 0 mm | - | - | - |
| 1787779828 | 27.78° C | 88% | 1017.7 hPa | 0 mm | - | - | - |
* Rain latest hour (hover to see other rain measurements)
** Current wind speed in m/s (hover to see current wind gust speed)